Аэропорт: Сокол. Магадан

ICAO: UHMM

METAR:
2020-10-19 22:00:00
UHMM 192200Z 10001MPS 9999 SCT034 M06/M08 Q1000 R10/99//32 NOSIG RMK QFE735 R28/21001MPS
METAR:
2020-10-19 19:50:00
TAF UHMM 191950Z 1921/2103 01003MPS 9999 BKN030CB TEMPO 1921/2001 31003MPS 3100 -SHSN FEW011 BKN025CB BECMG 2006/2008 NSC